Time;durP1;ratioP1;P1;durP2;ratioP2;P2;SDS_P1;SDS_P2;PMS_P1;PMS_P2;Temp;Humidity;BMP_temperature;BMP_pressure;BME280_temperature;BME280_humidity;BME280_pressure;Samples;Min_cycle;Max_cycle;Signal;HPM_P1;HPM_P2
2023/07/29 00:01:40;;;;;;;6.78;3.70;;;21.00;99.90;;;;;;4995950;28;20046;-72
2023/07/29 00:04:07;;;;;;;5.38;2.90;;;20.90;99.90;;;;;;4978838;28;20576;-72
2023/07/29 00:06:33;;;;;;;5.47;2.80;;;20.70;99.90;;;;;;4995838;28;20026;-72
2023/07/29 00:08:59;;;;;;;13.38;3.63;;;20.60;99.90;;;;;;4995320;28;20030;-72
2023/07/29 00:11:24;;;;;;;7.45;2.92;;;20.40;99.90;;;;;;4995516;28;20054;-72
2023/07/29 00:13:50;;;;;;;4.95;2.83;;;20.20;99.90;;;;;;4995650;28;20034;-73
2023/07/29 00:16:17;;;;;;;4.78;3.00;;;20.20;99.90;;;;;;4995961;28;20469;-72
2023/07/29 00:18:43;;;;;;;5.57;3.15;;;20.30;99.90;;;;;;5009796;28;20125;-72
2023/07/29 00:21:09;;;;;;;6.93;3.10;;;20.50;99.90;;;;;;5016203;28;20033;-72
2023/07/29 00:23:34;;;;;;;7.32;3.80;;;20.50;99.90;;;;;;5013338;28;20030;-72
2023/07/29 00:26:00;;;;;;;5.68;3.67;;;20.40;99.90;;;;;;4996439;28;20113;-72
2023/07/29 00:28:26;;;;;;;5.38;2.70;;;20.30;99.90;;;;;;4994075;28;20030;-72
2023/07/29 00:30:51;;;;;;;6.40;3.40;;;20.10;99.90;;;;;;4994864;28;20051;-72
2023/07/29 00:33:17;;;;;;;8.68;3.22;;;20.10;99.90;;;;;;4995361;28;20092;-73
2023/07/29 00:35:43;;;;;;;5.88;3.20;;;20.00;99.90;;;;;;4996207;28;20042;-72
2023/07/29 00:38:08;;;;;;;5.07;2.97;;;19.90;99.90;;;;;;4994189;28;20391;-72
2023/07/29 00:40:36;;;;;;;8.90;3.30;;;19.90;99.90;;;;;;4996412;28;20088;-72
2023/07/29 00:43:02;;;;;;;5.03;2.47;;;19.90;99.90;;;;;;4996142;28;20030;-72
2023/07/29 00:45:30;;;;;;;6.63;3.03;;;19.90;99.90;;;;;;4995615;28;20030;-72
2023/07/29 00:47:55;;;;;;;7.00;3.10;;;19.90;99.90;;;;;;4994697;28;20120;-72
2023/07/29 00:50:21;;;;;;;7.68;3.35;;;20.00;99.90;;;;;;4994413;28;20054;-72
2023/07/29 00:52:48;;;;;;;5.40;2.72;;;20.00;99.90;;;;;;4995653;28;20488;-72
2023/07/29 00:55:14;;;;;;;8.27;3.38;;;19.90;99.90;;;;;;4995180;28;20140;-73
2023/07/29 00:57:40;;;;;;;5.03;3.17;;;19.80;99.90;;;;;;4994398;28;20488;-72
2023/07/29 01:00:06;;;;;;;4.82;3.13;;;19.80;99.90;;;;;;4995155;28;20030;-72
2023/07/29 01:02:32;;;;;;;6.18;3.13;;;19.70;99.90;;;;;;4995080;28;20030;-72
2023/07/29 01:04:59;;;;;;;8.77;3.80;;;19.60;99.90;;;;;;4995806;28;20035;-72
2023/07/29 01:07:30;;;;;;;5.43;3.08;;;19.50;99.90;;;;;;4994024;28;20113;-72
2023/07/29 01:09:57;;;;;;;7.70;3.47;;;19.40;99.90;;;;;;4994578;28;20105;-72
2023/07/29 01:12:29;;;;;;;4.57;2.97;;;19.30;99.90;;;;;;4993818;28;20050;-72
2023/07/29 01:15:16;;;;;;;5.50;2.97;;;19.20;99.90;;;;;;4995411;28;20061;-72
2023/07/29 01:18:04;;;;;;;7.63;2.80;;;19.30;99.90;;;;;;4993806;28;20113;-72
2023/07/29 01:20:33;;;;;;;7.15;3.40;;;19.40;99.90;;;;;;4995249;28;20451;-72
2023/07/29 01:22:59;;;;;;;5.68;3.08;;;19.40;99.90;;;;;;4994790;28;20496;-72
2023/07/29 01:25:25;;;;;;;5.78;2.75;;;19.40;99.90;;;;;;4993583;28;20137;-72
2023/07/29 01:27:51;;;;;;;4.80;2.78;;;19.50;99.90;;;;;;4994132;28;20034;-72
2023/07/29 01:30:19;;;;;;;8.68;3.05;;;19.40;99.90;;;;;;4995095;28;20062;-72
2023/07/29 01:33:14;;;;;;;6.38;3.17;;;19.40;99.90;;;;;;4994277;28;20022;-72
2023/07/29 01:35:46;;;;;;;6.35;3.00;;;19.20;99.90;;;;;;4994965;28;20513;-72
2023/07/29 01:38:20;;;;;;;4.68;2.58;;;19.40;99.90;;;;;;4991816;28;20086;-72
2023/07/29 01:40:47;;;;;;;;;;;19.50;99.90;;;;;;4995305;28;20045;-72
2023/07/29 01:43:13;;;;;;;5.07;2.53;;;19.50;99.90;;;;;;4993479;28;19909;-73
2023/07/29 01:45:39;;;;;;;7.53;2.80;;;19.30;99.90;;;;;;4994931;28;20425;-72
2023/07/29 01:48:06;;;;;;;2.58;1.58;;;19.30;99.90;;;;;;4993150;28;20022;-72
2023/07/29 01:50:32;;;;;;;3.45;1.88;;;19.50;99.90;;;;;;4993776;28;20034;-72
2023/07/29 01:52:58;;;;;;;4.85;2.15;;;19.80;99.90;;;;;;4994325;28;20045;-72
2023/07/29 01:55:24;;;;;;;3.45;1.98;;;19.90;99.90;;;;;;4982464;28;20105;-72
2023/07/29 01:57:51;;;;;;;4.25;1.85;;;19.80;99.90;;;;;;4993122;28;20480;-72
2023/07/29 02:00:17;;;;;;;3.50;1.77;;;19.70;99.90;;;;;;4994131;28;20476;-72
2023/07/29 02:02:43;;;;;;;4.85;1.98;;;19.90;99.90;;;;;;4993644;28;20068;-72
2023/07/29 02:05:09;;;;;;;3.72;1.83;;;20.00;99.90;;;;;;4994368;28;20027;-72
2023/07/29 02:07:34;;;;;;;5.65;2.13;;;19.80;99.90;;;;;;4992203;28;20034;-72
2023/07/29 02:10:00;;;;;;;5.55;1.70;;;19.70;99.90;;;;;;4994610;28;20088;-72
2023/07/29 02:12:26;;;;;;;4.68;2.17;;;19.90;99.90;;;;;;4993942;28;20061;-72
2023/07/29 02:14:51;;;;;;;3.67;2.05;;;19.80;99.90;;;;;;4992701;28;20057;-72
2023/07/29 02:17:17;;;;;;;4.28;2.35;;;19.70;99.90;;;;;;4994025;28;20106;-72
2023/07/29 02:19:43;;;;;;;4.95;2.45;;;19.40;99.90;;;;;;4994832;28;20027;-72
2023/07/29 02:22:09;;;;;;;3.75;2.00;;;19.30;99.90;;;;;;4994267;28;20106;-72
2023/07/29 02:24:35;;;;;;;5.15;2.00;;;19.20;99.90;;;;;;4993122;28;20164;-72
2023/07/29 02:27:01;;;;;;;4.13;2.58;;;19.10;99.90;;;;;;4994168;28;20105;-72
2023/07/29 02:29:26;;;;;;;4.57;2.47;;;19.00;99.90;;;;;;4987749;28;20129;-72
2023/07/29 02:31:52;;;;;;;3.97;2.30;;;19.00;99.90;;;;;;4992626;28;20042;-71
2023/07/29 02:34:18;;;;;;;7.32;2.03;;;19.00;99.90;;;;;;4992732;28;20026;-72
2023/07/29 02:36:43;;;;;;;3.65;1.88;;;19.20;99.90;;;;;;4993964;28;20034;-72
2023/07/29 02:39:09;;;;;;;3.90;2.17;;;19.40;99.90;;;;;;4993983;28;20544;-72
2023/07/29 02:41:35;;;;;;;7.07;2.08;;;19.30;99.90;;;;;;4992492;28;20045;-72
2023/07/29 02:44:02;;;;;;;5.90;1.95;;;19.40;99.90;;;;;;4992595;28;20031;-72
2023/07/29 02:46:27;;;;;;;3.53;1.90;;;19.40;99.90;;;;;;4993421;28;20512;-72
2023/07/29 02:48:53;;;;;;;4.00;1.90;;;19.40;99.90;;;;;;4993916;28;20072;-72
2023/07/29 02:51:19;;;;;;;3.90;2.25;;;19.40;99.90;;;;;;4993061;28;20054;-72
2023/07/29 02:53:45;;;;;;;3.30;1.60;;;19.30;99.90;;;;;;4991935;28;20093;-72
2023/07/29 02:56:11;;;;;;;3.40;1.65;;;19.20;99.90;;;;;;4993138;28;20082;-71
2023/07/29 02:58:38;;;;;;;3.88;1.45;;;19.30;99.90;;;;;;4974201;28;20053;-72
2023/07/29 03:01:05;;;;;;;4.47;2.10;;;19.30;99.90;;;;;;4974021;28;20022;-70
2023/07/29 03:03:31;;;;;;;3.35;1.52;;;19.20;99.90;;;;;;4974409;28;20088;-72
2023/07/29 03:06:08;;;;;;;4.45;1.55;;;19.10;99.90;;;;;;4988399;28;20027;-72
2023/07/29 03:08:34;;;;;;;3.97;1.95;;;19.20;99.90;;;;;;4988335;28;20113;-72
2023/07/29 03:11:10;;;;;;;3.58;1.55;;;19.30;99.90;;;;;;4987939;28;20058;-71
2023/07/29 03:13:36;;;;;;;4.80;1.58;;;19.40;99.90;;;;;;4970992;28;20096;-71
2023/07/29 03:16:08;;;;;;;5.45;1.70;;;19.50;99.90;;;;;;4987604;28;20034;-71
2023/07/29 03:18:34;;;;;;;3.35;1.73;;;19.50;99.90;;;;;;4972420;28;20061;-71
2023/07/29 03:21:00;;;;;;;5.47;1.65;;;19.30;99.90;;;;;;4985831;28;20062;-71
2023/07/29 03:23:27;;;;;;;3.83;1.77;;;19.20;99.90;;;;;;4985788;28;20473;-70
2023/07/29 03:25:56;;;;;;;4.63;1.98;;;19.20;99.90;;;;;;4987366;28;20104;-71
2023/07/29 03:28:27;;;;;;;7.97;1.90;;;19.30;99.90;;;;;;4988210;28;20034;-72
2023/07/29 03:30:54;;;;;;;2.97;1.35;;;19.20;99.90;;;;;;4988877;28;20022;-71
2023/07/29 03:33:19;;;;;;;5.05;1.70;;;19.10;99.90;;;;;;4985895;28;20053;-73
2023/07/29 03:35:45;;;;;;;3.28;1.52;;;19.30;99.90;;;;;;4979912;28;20022;-73
2023/07/29 03:38:14;;;;;;;5.45;2.35;;;19.40;99.90;;;;;;4984141;28;20113;-73
2023/07/29 03:40:40;;;;;;;3.45;2.08;;;19.50;99.90;;;;;;4986577;28;20018;-72
2023/07/29 03:43:06;;;;;;;12.32;2.17;;;19.40;99.90;;;;;;4986391;28;20707;-73
2023/07/29 03:45:33;;;;;;;8.95;2.30;;;19.20;99.90;;;;;;4988082;28;20023;-73
2023/07/29 03:47:59;;;;;;;8.20;2.58;;;18.90;99.90;;;;;;4991401;28;20030;-73
2023/07/29 03:50:25;;;;;;;5.93;1.70;;;19.00;99.90;;;;;;4995061;28;20041;-73
2023/07/29 03:52:51;;;;;;;4.18;1.73;;;19.00;99.90;;;;;;4987165;28;20030;-71
2023/07/29 03:55:16;;;;;;;5.55;1.95;;;18.90;99.90;;;;;;4986805;28;20045;-73
2023/07/29 03:57:42;;;;;;;4.70;1.80;;;18.80;99.90;;;;;;4970072;28;20034;-73
2023/07/29 04:00:11;;;;;;;4.20;2.03;;;18.70;99.90;;;;;;4986187;28;20105;-73
2023/07/29 04:02:40;;;;;;;6.60;1.95;;;18.60;99.90;;;;;;4986573;28;20073;-72
2023/07/29 04:05:08;;;;;;;4.57;1.90;;;18.70;99.90;;;;;;4986574;28;20026;-73
2023/07/29 04:07:37;;;;;;;3.33;1.80;;;18.70;99.90;;;;;;4985113;28;20054;-72
2023/07/29 04:10:04;;;;;;;4.90;2.00;;;18.70;99.90;;;;;;4984400;28;20031;-72
2023/07/29 04:12:30;;;;;;;3.47;1.50;;;18.70;99.90;;;;;;4983693;28;20070;-73
2023/07/29 04:14:56;;;;;;;4.15;2.05;;;18.80;99.90;;;;;;4982277;28;20552;-73
2023/07/29 04:17:22;;;;;;;8.88;2.00;;;18.80;99.90;;;;;;4982143;28;20113;-73
2023/07/29 04:19:47;;;;;;;6.25;2.00;;;18.70;99.90;;;;;;4983998;28;20113;-74
2023/07/29 04:22:15;;;;;;;3.40;1.60;;;18.70;99.90;;;;;;4984515;28;20427;-72
2023/07/29 04:24:41;;;;;;;2.97;1.60;;;18.70;99.90;;;;;;4986185;28;20030;-73
2023/07/29 04:27:06;;;;;;;3.63;1.70;;;18.60;99.90;;;;;;4987972;28;20034;-75
2023/07/29 04:29:32;;;;;;;3.80;1.90;;;18.70;99.90;;;;;;4988821;28;20113;-74
2023/07/29 04:31:58;;;;;;;5.20;2.25;;;18.70;99.90;;;;;;4990772;28;20026;-73
2023/07/29 04:34:23;;;;;;;3.80;2.08;;;18.80;99.90;;;;;;4989980;28;20035;-72
2023/07/29 04:36:49;;;;;;;3.92;1.75;;;18.90;99.90;;;;;;4991389;28;20034;-73
2023/07/29 04:39:15;;;;;;;3.38;1.88;;;19.00;99.90;;;;;;4990051;28;20781;-73
2023/07/29 04:41:40;;;;;;;3.35;1.67;;;19.00;99.90;;;;;;4991619;28;20030;-73
2023/07/29 04:44:07;;;;;;;4.22;1.92;;;19.10;99.90;;;;;;4989540;28;20503;-74
2023/07/29 04:46:33;;;;;;;6.40;1.95;;;19.00;99.90;;;;;;4990788;28;20114;-73
2023/07/29 04:48:58;;;;;;;4.43;1.80;;;19.00;99.90;;;;;;4990695;28;20089;-73
2023/07/29 04:51:24;;;;;;;2.67;1.45;;;18.90;99.90;;;;;;4982855;28;20034;-74
2023/07/29 04:53:51;;;;;;;5.30;1.30;;;18.90;99.90;;;;;;4984498;28;20042;-73
2023/07/29 04:56:16;;;;;;;3.30;1.70;;;18.90;99.90;;;;;;4984107;28;20393;-74
2023/07/29 04:58:42;;;;;;;3.80;1.58;;;18.90;99.90;;;;;;4990539;28;20070;-73
2023/07/29 05:01:08;;;;;;;4.05;1.67;;;19.20;99.90;;;;;;4986830;28;20597;-73
2023/07/29 05:03:33;;;;;;;2.40;1.17;;;19.30;99.90;;;;;;4987798;28;20093;-73
2023/07/29 05:05:59;;;;;;;5.47;1.95;;;19.20;99.90;;;;;;4990994;28;20027;-73
2023/07/29 05:08:28;;;;;;;4.40;1.58;;;19.20;99.90;;;;;;4990897;28;20727;-72
2023/07/29 05:10:55;;;;;;;4.57;2.20;;;19.20;99.90;;;;;;4991096;28;20073;-72
2023/07/29 05:13:23;;;;;;;3.83;1.88;;;19.30;99.90;;;;;;4986756;28;20034;-72
2023/07/29 05:15:49;;;;;;;2.75;1.63;;;19.30;99.90;;;;;;4990442;28;20034;-72
2023/07/29 05:18:16;;;;;;;3.10;1.60;;;19.40;99.90;;;;;;4989728;28;20034;-73
2023/07/29 05:20:42;;;;;;;3.67;1.80;;;19.20;99.90;;;;;;4990380;28;20031;-72
2023/07/29 05:23:07;;;;;;;4.28;1.75;;;19.20;99.90;;;;;;4988004;28;20092;-74
2023/07/29 05:25:34;;;;;;;3.58;1.63;;;19.20;99.90;;;;;;4989910;28;20405;-73
2023/07/29 05:28:00;;;;;;;3.72;1.42;;;19.30;99.90;;;;;;4989533;28;20037;-74
2023/07/29 05:30:30;;;;;;;3.90;1.95;;;19.20;99.90;;;;;;4990881;28;20076;-73
2023/07/29 05:32:59;;;;;;;3.08;1.70;;;19.20;99.90;;;;;;4989525;28;20030;-75
2023/07/29 05:35:24;;;;;;;6.13;1.50;;;19.30;99.90;;;;;;4986419;28;20412;-72
2023/07/29 05:37:50;;;;;;;5.03;1.80;;;19.40;99.90;;;;;;4990365;28;20057;-75
2023/07/29 05:40:16;;;;;;;2.58;1.52;;;19.40;99.90;;;;;;4990029;28;20042;-73
2023/07/29 05:42:43;;;;;;;3.67;1.60;;;19.30;99.90;;;;;;4987651;28;20041;-73
2023/07/29 05:45:09;;;;;;;4.82;1.58;;;19.40;99.90;;;;;;4990412;28;20023;-73
2023/07/29 05:47:35;;;;;;;5.78;1.75;;;19.50;99.90;;;;;;4988265;28;20026;-73
2023/07/29 05:50:04;;;;;;;3.65;1.10;;;19.50;99.90;;;;;;4988694;28;20038;-72
2023/07/29 05:52:30;;;;;;;3.35;1.60;;;19.60;99.90;;;;;;4989538;28;20042;-73
2023/07/29 05:54:56;;;;;;;3.55;1.63;;;19.50;99.90;;;;;;4987547;28;20555;-73
2023/07/29 05:57:21;;;;;;;2.90;1.52;;;19.50;99.90;;;;;;4989421;28;20105;-74
2023/07/29 05:59:47;;;;;;;3.22;1.52;;;19.60;99.90;;;;;;4989723;28;20030;-73
2023/07/29 06:02:12;;;;;;;3.22;1.55;;;19.70;99.90;;;;;;4989775;28;20030;-72
2023/07/29 06:04:38;;;;;;;2.80;1.40;;;19.70;99.90;;;;;;4989551;28;20138;-73
2023/07/29 06:07:05;;;;;;;3.28;1.70;;;19.70;99.90;;;;;;4988553;28;20026;-73
2023/07/29 06:09:30;;;;;;;4.13;1.52;;;19.80;99.90;;;;;;4987992;28;20041;-73
2023/07/29 06:11:56;;;;;;;2.63;1.38;;;19.90;99.90;;;;;;4988614;28;20050;-74
2023/07/29 06:14:22;;;;;;;6.70;1.40;;;19.80;99.90;;;;;;4990207;28;20105;-74
2023/07/29 06:16:47;;;;;;;4.50;1.40;;;19.80;99.90;;;;;;4988678;28;20046;-73
2023/07/29 06:19:13;;;;;;;5.63;1.35;;;19.90;99.90;;;;;;4988229;28;20115;-73
2023/07/29 06:21:38;;;;;;;3.42;1.63;;;20.00;99.90;;;;;;4989073;28;20092;-73
2023/07/29 06:24:04;;;;;;;4.03;1.40;;;20.10;99.90;;;;;;4987292;28;20081;-73
2023/07/29 06:26:30;;;;;;;4.70;1.58;;;20.00;99.90;;;;;;4989589;28;20519;-73
2023/07/29 06:28:56;;;;;;;2.80;1.60;;;20.10;99.90;;;;;;4988274;28;20030;-74
2023/07/29 06:31:22;;;;;;;3.30;1.30;;;20.10;99.90;;;;;;4989187;28;20084;-72
2023/07/29 06:33:48;;;;;;;3.33;1.33;;;20.20;99.90;;;;;;4988395;28;20065;-73
2023/07/29 06:36:14;;;;;;;2.60;1.23;;;20.20;99.90;;;;;;4983228;28;20038;-73
2023/07/29 06:38:40;;;;;;;3.90;1.40;;;20.30;99.90;;;;;;4987842;28;20096;-74
2023/07/29 06:41:06;;;;;;;2.28;1.13;;;20.30;99.90;;;;;;4989523;28;20034;-73
2023/07/29 06:43:32;;;;;;;3.78;1.50;;;20.40;99.90;;;;;;4988808;28;20103;-73
2023/07/29 06:45:58;;;;;;;3.05;1.60;;;20.50;99.90;;;;;;4990551;28;20087;-73
2023/07/29 06:48:23;;;;;;;2.45;1.33;;;20.60;99.90;;;;;;4997751;28;20113;-73
2023/07/29 06:50:54;;;;;;;3.92;1.58;;;20.60;99.90;;;;;;4989292;28;20027;-74
2023/07/29 06:53:20;;;;;;;2.65;1.20;;;20.60;99.90;;;;;;4988665;28;20034;-73
2023/07/29 06:55:46;;;;;;;5.03;1.40;;;20.60;99.90;;;;;;4988101;28;20033;-73
2023/07/29 06:58:11;;;;;;;3.70;1.50;;;20.80;99.90;;;;;;4987317;28;20042;-73
2023/07/29 07:00:37;;;;;;;3.38;1.80;;;20.90;99.90;;;;;;4986611;28;20030;-73
2023/07/29 07:03:03;;;;;;;2.75;1.42;;;21.00;99.90;;;;;;4987110;28;20053;-74
2023/07/29 07:05:28;;;;;;;3.42;1.65;;;21.20;99.90;;;;;;4986419;28;20058;-74
2023/07/29 07:07:54;;;;;;;3.08;1.55;;;21.40;99.90;;;;;;4989280;28;20027;-73
2023/07/29 07:10:20;;;;;;;4.00;1.52;;;21.70;99.90;;;;;;4986160;28;20030;-74
2023/07/29 07:12:45;;;;;;;3.20;1.58;;;22.00;99.90;;;;;;4988963;28;20041;-73
2023/07/29 07:15:11;;;;;;;2.78;1.40;;;22.20;99.90;;;;;;4988630;28;20034;-73
2023/07/29 07:17:37;;;;;;;3.40;1.52;;;22.30;99.90;;;;;;4994410;28;20057;-74
2023/07/29 07:20:03;;;;;;;3.63;1.58;;;22.50;99.90;;;;;;4986249;28;20109;-72
2023/07/29 07:22:29;;;;;;;3.35;1.60;;;22.90;99.90;;;;;;4988135;28;20033;-73
2023/07/29 07:24:54;;;;;;;3.15;1.38;;;23.20;99.90;;;;;;4984678;28;20018;-74
2023/07/29 07:27:20;;;;;;;2.30;1.30;;;23.80;99.90;;;;;;4984933;28;20516;-73
2023/07/29 07:29:47;;;;;;;4.43;1.40;;;24.70;99.90;;;;;;4985658;28;20109;-73
2023/07/29 07:32:12;;;;;;;4.13;1.98;;;25.90;99.90;;;;;;4985661;28;20129;-74
2023/07/29 07:34:38;;;;;;;2.90;1.33;;;26.70;98.40;;;;;;4980391;28;20040;-74
2023/07/29 07:37:04;;;;;;;2.45;1.08;;;27.50;97.50;;;;;;4983848;28;20022;-75
2023/07/29 07:39:31;;;;;;;2.70;1.20;;;28.30;97.00;;;;;;4984966;28;20034;-74
2023/07/29 07:41:56;;;;;;;2.20;1.27;;;28.80;96.90;;;;;;4985973;28;20096;-74
2023/07/29 07:44:22;;;;;;;4.00;1.30;;;28.90;96.10;;;;;;4984782;28;20026;-74
2023/07/29 07:46:48;;;;;;;2.10;1.23;;;29.20;95.40;;;;;;4985632;28;20058;-74
2023/07/29 07:49:14;;;;;;;2.92;1.42;;;29.00;95.20;;;;;;4984753;28;20138;-73
2023/07/29 07:51:40;;;;;;;5.35;1.67;;;29.20;95.00;;;;;;4984770;28;20026;-75
2023/07/29 07:54:06;;;;;;;4.07;1.67;;;29.60;95.00;;;;;;4984269;28;20062;-77
2023/07/29 07:56:32;;;;;;;4.85;1.55;;;28.80;94.60;;;;;;4985990;28;20138;-75
2023/07/29 07:58:57;;;;;;;2.20;1.40;;;29.10;94.80;;;;;;4985353;28;20451;-74
2023/07/29 08:01:23;;;;;;;3.20;1.80;;;29.10;94.90;;;;;;4985732;28;20027;-75
2023/07/29 08:03:48;;;;;;;3.65;2.05;;;29.40;94.90;;;;;;4978924;28;20031;-74
2023/07/29 08:06:14;;;;;;;3.58;1.50;;;28.30;96.00;;;;;;4987848;28;20041;-74
2023/07/29 08:08:40;;;;;;;3.17;1.48;;;26.30;98.20;;;;;;5002162;28;20472;-74
2023/07/29 08:11:05;;;;;;;3.47;1.50;;;25.20;99.00;;;;;;4986408;28;20078;-74
2023/07/29 08:13:31;;;;;;;4.85;1.48;;;24.90;99.90;;;;;;4989170;28;20058;-74
2023/07/29 08:15:57;;;;;;;2.25;1.20;;;26.80;97.90;;;;;;4988538;28;20022;-74
2023/07/29 08:18:22;;;;;;;3.17;1.60;;;27.80;96.40;;;;;;4988905;28;20066;-77
2023/07/29 08:20:55;;;;;;;3.50;1.17;;;28.30;95.50;;;;;;4982358;28;20436;-74
2023/07/29 08:23:21;;;;;;;4.90;1.30;;;28.60;95.80;;;;;;4988187;28;20065;-76
2023/07/29 08:25:56;;;;;;;3.60;1.75;;;28.00;95.50;;;;;;4988675;28;20033;-74
2023/07/29 08:28:22;;;;;;;4.78;1.73;;;27.70;96.20;;;;;;4984195;28;20028;-75
2023/07/29 08:30:48;;;;;;;3.88;1.50;;;27.10;96.60;;;;;;4985767;28;20049;-74
2023/07/29 08:33:13;;;;;;;2.70;1.30;;;25.80;97.20;;;;;;4983495;28;20050;-74
2023/07/29 08:35:39;;;;;;;3.25;1.20;;;25.80;98.50;;;;;;4987469;28;20088;-74
2023/07/29 08:38:04;;;;;;;2.78;1.23;;;25.60;98.10;;;;;;4988068;28;20100;-76
2023/07/29 08:40:34;;;;;;;3.35;1.70;;;25.00;98.40;;;;;;4988889;28;20034;-73
2023/07/29 08:43:04;;;;;;;3.55;1.48;;;25.30;99.30;;;;;;4987088;28;20033;-75
2023/07/29 08:45:34;;;;;;;3.13;1.60;;;25.10;98.80;;;;;;4986624;28;20458;-73
2023/07/29 08:48:06;;;;;;;2.67;1.42;;;25.00;98.80;;;;;;4987396;28;20491;-73
2023/07/29 08:50:32;;;;;;;3.03;1.60;;;24.80;99.90;;;;;;4988847;28;20022;-75
2023/07/29 08:53:00;;;;;;;3.83;1.70;;;25.10;99.90;;;;;;4987542;28;20038;-74
2023/07/29 08:55:26;;;;;;;3.20;1.55;;;25.20;99.90;;;;;;4988165;28;20148;-74
2023/07/29 08:57:53;;;;;;;3.45;2.00;;;25.10;98.90;;;;;;4987654;28;20113;-75
2023/07/29 09:00:19;;;;;;;3.38;1.63;;;25.20;99.30;;;;;;4985745;28;20065;-74
2023/07/29 09:02:45;;;;;;;3.45;1.70;;;25.30;99.60;;;;;;4987571;28;20030;-79
2023/07/29 09:05:10;;;;;;;3.17;1.58;;;25.20;99.10;;;;;;4988943;28;20030;-80
2023/07/29 09:07:37;;;;;;;4.35;2.20;;;25.00;98.90;;;;;;4987303;28;20038;-75
2023/07/29 09:10:02;;;;;;;4.40;1.63;;;25.20;99.40;;;;;;4984757;28;20030;-74
2023/07/29 09:12:28;;;;;;;5.15;1.50;;;25.40;99.10;;;;;;4982403;28;20421;-74
2023/07/29 09:14:56;;;;;;;3.22;1.63;;;25.70;99.80;;;;;;4983908;28;20038;-75
2023/07/29 09:17:22;;;;;;;4.10;1.60;;;25.70;98.10;;;;;;4978021;28;20094;-76
2023/07/29 09:19:50;;;;;;;5.43;2.38;;;25.60;98.90;;;;;;4984139;28;20030;-81
2023/07/29 09:22:20;;;;;;;3.58;1.77;;;25.60;99.00;;;;;;4980108;28;20061;-75
2023/07/29 09:24:46;;;;;;;4.00;1.90;;;25.50;98.30;;;;;;4979575;28;20201;-75
2023/07/29 09:27:25;;;;;;;3.70;1.98;;;25.80;99.30;;;;;;4977899;28;20065;-73
2023/07/29 09:29:51;;;;;;;4.40;2.05;;;26.20;99.60;;;;;;4980916;28;20027;-74
2023/07/29 09:32:24;;;;;;;5.00;1.63;;;26.20;98.50;;;;;;4980452;28;20061;-75
2023/07/29 09:34:51;;;;;;;5.20;1.95;;;26.20;97.90;;;;;;4977970;28;20604;-75
2023/07/29 09:37:18;;;;;;;5.63;1.80;;;26.40;98.30;;;;;;4980210;28;20113;-76
2023/07/29 09:39:47;;;;;;;4.45;2.10;;;26.50;97.80;;;;;;4981617;28;20034;-74
2023/07/29 09:42:19;;;;;;;3.42;1.95;;;26.40;97.90;;;;;;4979424;28;20054;-74
2023/07/29 09:44:45;;;;;;;2.78;1.70;;;25.90;98.30;;;;;;4979299;28;20160;-76
2023/07/29 09:47:22;;;;;;;3.40;1.90;;;26.00;98.60;;;;;;4978968;28;20044;-75
2023/07/29 09:49:48;;;;;;;4.80;2.00;;;26.40;98.30;;;;;;4979339;28;20026;-74
2023/07/29 09:52:16;;;;;;;3.53;1.80;;;26.30;97.70;;;;;;4977397;28;20093;-75
2023/07/29 09:54:44;;;;;;;6.30;2.20;;;26.70;99.10;;;;;;4979221;28;20116;-73
2023/07/29 09:57:19;;;;;;;3.78;2.00;;;26.80;99.00;;;;;;4981324;28;20037;-74
2023/07/29 10:00:10;;;;;;;3.15;1.67;;;26.90;98.40;;;;;;4977963;28;20696;-73
2023/07/29 10:02:40;;;;;;;3.83;2.08;;;26.70;99.30;;;;;;4977373;28;20046;-77
2023/07/29 10:05:07;;;;;;;2.78;1.60;;;26.90;98.60;;;;;;4979506;28;20026;-74
2023/07/29 10:07:34;;;;;;;9.90;4.20;;;27.10;98.80;;;;;;4976443;28;20365;-75
2023/07/29 10:10:02;;;;;;;10.68;4.05;;;27.20;98.30;;;;;;4978702;28;20432;-75
2023/07/29 10:12:30;;;;;;;4.53;2.28;;;27.30;98.10;;;;;;4961887;28;20046;-76
2023/07/29 10:15:00;;;;;;;4.13;2.25;;;27.50;98.40;;;;;;4960831;28;20358;-75
2023/07/29 10:17:26;;;;;;;4.25;2.38;;;27.30;97.40;;;;;;4959551;28;20046;-74
2023/07/29 10:19:52;;;;;;;4.30;2.33;;;27.20;98.20;;;;;;4961537;28;20558;-76
2023/07/29 10:22:21;;;;;;;11.68;4.53;;;27.40;98.60;;;;;;4958927;28;20137;-75
2023/07/29 10:24:48;;;;;;;8.07;2.45;;;27.90;97.60;;;;;;4954007;28;20031;-75
2023/07/29 10:27:19;;;;;;;7.03;3.63;;;28.00;97.60;;;;;;4960171;28;20038;-76
2023/07/29 10:29:45;;;;;;;18.15;4.65;;;28.00;96.50;;;;;;4962004;28;20121;-75
2023/07/29 10:32:12;;;;;;;5.22;2.22;;;27.80;97.10;;;;;;4963426;28;20050;-75
2023/07/29 10:34:38;;;;;;;5.45;3.10;;;28.00;97.20;;;;;;4961360;28;20031;-82
2023/07/29 10:37:04;;;;;;;3.75;2.20;;;28.20;97.80;;;;;;4958663;28;20042;-76
2023/07/29 10:39:40;;;;;;;5.15;2.42;;;27.70;96.00;;;;;;4960294;28;20062;-83
2023/07/29 10:42:07;;;;;;;5.28;2.42;;;27.70;96.80;;;;;;4960805;28;20110;-76
2023/07/29 10:44:51;;;;;;;5.45;2.72;;;28.20;97.20;;;;;;4960241;28;20436;-76
2023/07/29 10:47:25;;;;;;;4.25;2.33;;;28.20;96.10;;;;;;4961929;28;20725;-75
2023/07/29 10:49:56;;;;;;;4.60;2.38;;;27.80;96.70;;;;;;4960017;28;20038;-76
2023/07/29 10:52:49;;;;;;;4.63;2.35;;;28.30;96.70;;;;;;4961717;28;20046;-72
2023/07/29 10:55:26;;;;;;;4.97;2.85;;;28.20;95.80;;;;;;4952402;28;20046;-73
2023/07/29 10:57:52;;;;;;;5.95;2.47;;;28.20;96.10;;;;;;4958225;28;20054;-72
2023/07/29 11:00:23;;;;;;;4.22;2.83;;;28.40;96.30;;;;;;4958407;28;20038;-73
2023/07/29 11:03:09;;;;;;;5.68;2.97;;;28.40;97.50;;;;;;4960419;28;20369;-73
2023/07/29 11:05:52;;;;;;;5.20;2.90;;;28.30;96.50;;;;;;4961125;28;20161;-75
2023/07/29 11:08:18;;;;;;;4.63;2.50;;;28.30;96.70;;;;;;4957706;28;20046;-73
2023/07/29 11:10:44;;;;;;;6.80;2.60;;;28.20;96.50;;;;;;4962638;28;20332;-73
2023/07/29 11:13:11;;;;;;;5.57;3.05;;;28.50;98.70;;;;;;4977366;28;20054;-74
2023/07/29 11:15:39;;;;;;;4.85;2.63;;;28.40;96.60;;;;;;4978476;28;20423;-75
2023/07/29 11:18:06;;;;;;;8.25;2.95;;;28.60;97.50;;;;;;4979562;28;20026;-73
2023/07/29 11:20:33;;;;;;;5.13;2.53;;;28.60;96.50;;;;;;4979769;28;20118;-75
2023/07/29 11:23:03;;;;;;;5.95;2.70;;;28.20;96.20;;;;;;4981148;28;20104;-74
2023/07/29 11:25:30;;;;;;;6.65;2.80;;;28.30;96.10;;;;;;4977252;28;20045;-74
2023/07/29 11:27:58;;;;;;;5.43;2.60;;;28.00;96.20;;;;;;4978546;28;20034;-74
2023/07/29 11:30:29;;;;;;;10.10;3.30;;;28.10;97.30;;;;;;4975873;28;20066;-72
2023/07/29 11:32:55;;;;;;;7.20;2.42;;;28.30;98.20;;;;;;4979308;28;20031;-74
2023/07/29 11:35:21;;;;;;;5.40;2.42;;;28.50;96.70;;;;;;4980190;28;20049;-83
2023/07/29 11:37:49;;;;;;;5.00;2.78;;;28.10;96.60;;;;;;4978163;28;20034;-73
2023/07/29 11:40:22;;;;;;;6.15;2.90;;;28.20;97.20;;;;;;4979959;28;20038;-77
2023/07/29 11:42:53;;;;;;;7.40;3.38;;;27.90;96.60;;;;;;4977520;28;20034;-73
2023/07/29 11:45:20;;;;;;;5.68;3.28;;;28.40;97.30;;;;;;4976627;28;20412;-74
2023/07/29 11:47:46;;;;;;;7.32;2.67;;;28.60;97.30;;;;;;4977661;28;20049;-76
2023/07/29 11:50:14;;;;;;;4.30;2.70;;;28.50;96.60;;;;;;4977190;28;20035;-73
2023/07/29 11:52:45;;;;;;;6.35;2.55;;;28.70;96.10;;;;;;4982889;28;20043;-74
2023/07/29 11:55:12;;;;;;;4.25;2.70;;;28.90;96.40;;;;;;4979922;28;21651;-74
2023/07/29 11:57:39;;;;;;;6.38;3.75;;;29.10;96.50;;;;;;4977815;28;20027;-74
2023/07/29 12:00:07;;;;;;;4.97;2.85;;;29.10;96.30;;;;;;4964241;28;20329;-74
2023/07/29 12:02:39;;;;;;;5.18;2.85;;;29.50;97.90;;;;;;4977094;28;20038;-74
2023/07/29 12:05:06;;;;;;;6.35;2.55;;;29.60;96.30;;;;;;4977362;28;20786;-73
2023/07/29 12:07:33;;;;;;;6.45;2.65;;;29.60;97.00;;;;;;4977700;28;20026;-74
2023/07/29 12:09:59;;;;;;;5.75;3.42;;;29.50;96.50;;;;;;4979094;28;20072;-74
2023/07/29 12:12:25;;;;;;;10.20;3.30;;;29.60;96.80;;;;;;4977971;28;20050;-75
2023/07/29 12:14:50;;;;;;;5.40;2.75;;;29.70;97.50;;;;;;4980199;28;20670;-75
2023/07/29 12:17:16;;;;;;;7.32;3.05;;;29.50;96.60;;;;;;4979929;28;20038;-74
2023/07/29 12:19:42;;;;;;;4.70;2.60;;;29.60;96.50;;;;;;4977966;28;20023;-73
2023/07/29 12:22:10;;;;;;;6.68;3.10;;;29.50;96.50;;;;;;4979314;28;20106;-74
2023/07/29 12:24:38;;;;;;;6.82;2.90;;;29.40;96.20;;;;;;4978614;28;20030;-73
2023/07/29 12:27:04;;;;;;;6.75;3.97;;;29.50;97.00;;;;;;4978069;28;20463;-81
2023/07/29 12:29:30;;;;;;;7.38;3.33;;;29.80;96.60;;;;;;4979570;28;20038;-75
2023/07/29 12:32:01;;;;;;;4.72;2.95;;;29.80;97.00;;;;;;4978072;28;20030;-74
2023/07/29 12:34:28;;;;;;;6.75;3.10;;;29.90;96.40;;;;;;4979494;28;20038;-75
2023/07/29 12:36:55;;;;;;;6.65;3.38;;;29.90;96.20;;;;;;4989968;28;20034;-75
2023/07/29 12:39:35;;;;;;;5.00;3.00;;;29.70;96.10;;;;;;4986412;28;20404;-75
2023/07/29 12:42:02;;;;;;;5.93;2.67;;;29.90;97.10;;;;;;4986801;28;20027;-74
2023/07/29 12:44:33;;;;;;;7.18;3.25;;;29.90;96.40;;;;;;4985629;28;20160;-76
2023/07/29 12:47:02;;;;;;;6.53;3.35;;;29.90;96.80;;;;;;4986642;28;20027;-74
2023/07/29 12:49:29;;;;;;;7.43;3.22;;;29.60;96.00;;;;;;4983171;28;20094;-74